F/V Fleur Des Vagues — FPEJ — position and weather

sailwx.info

Track history (hours):
 
Tides and Currents Weather Stations Pressure Air Temp Water Temp Dewpoint Dewpoint Depression Visibility Wind Speed Wind Dir Waves Ship Positions

F/V Fleur Des Vagues

Last reported at 2014-Nov-27 23:33 UTC. Time now 2014-Nov-28 00:19 UTC.
Position N 46°17' W 002°09'.

Length 16 m.

Type: Fishing. MMSI: 227893000.

Date/timePositionNaut miles runAvg speedWind from/ knotsBaromVisibWave heightAir tempDewpointWater temp
2014-Nov-27 23:33N 46°17' W 002°09'8 8.3
2014-Nov-27 22:33N 46°22' W 001°59'8 8.3
2014-Nov-27 21:33N 46°27' W 001°50'3 3.3
2014-Nov-27 20:33N 46°30' W 001°47'0 0.0
2014-Nov-27 19:33N 46°30' W 001°47'0 0.0
2014-Nov-27 18:33N 46°30' W 001°47'0 0.0
2014-Nov-27 17:33N 46°30' W 001°47'0 0.0
2014-Nov-27 16:33N 46°30' W 001°47'0 0.0
2014-Nov-27 15:33N 46°30' W 001°47'0 0.0
2014-Nov-27 14:33N 46°30' W 001°47'0 0.0
2014-Nov-27 13:33N 46°30' W 001°47'7 6.7
2014-Nov-27 12:33N 46°25' W 001°54'8 8.3
2014-Nov-27 11:33N 46°20' W 002°04'0 0.0
2014-Nov-26 02:21N 46°20' W 002°04'7 8.3
2014-Nov-26 01:33N 46°24' W 001°56'8 8.2
2014-Nov-26 00:33N 46°29' W 001°47'1 0.8
2014-Nov-25 23:33N 46°30' W 001°47'0 0.0
2014-Nov-25 22:33N 46°30' W 001°47'0 0.0
2014-Nov-25 21:33N 46°30' W 001°47'0 0.0
2014-Nov-25 20:33N 46°30' W 001°47'0 0.0
2014-Nov-25 19:33N 46°30' W 001°47'0 0.0
2014-Nov-25 18:33N 46°30' W 001°47'0 0.0
2014-Nov-25 17:33N 46°30' W 001°47'0 0.0
2014-Nov-25 16:33N 46°30' W 001°47'0 0.0
2014-Nov-25 15:33N 46°30' W 001°47'0 0.0
2014-Nov-25 14:33N 46°30' W 001°47'0 0.0
2014-Nov-25 13:33N 46°30' W 001°47'2 2.5
2014-Nov-25 12:33N 46°28' W 001°49'22 0.7
2014-Nov-24 02:06N 46°23' W 002°21'0 0.0
2014-Nov-23 11:23N 46°23' W 002°21'8 6.7
2014-Nov-23 10:15N 46°23' W 002°10'6 8.6
2014-Nov-23 09:33N 46°25' W 002°01'4 3.9
2014-Nov-23 08:34N 46°25' W 001°56'2 1.8
2014-Nov-23 07:33N 46°27' W 001°57'1 1.4
2014-Nov-23 06:33N 46°26' W 001°56'1 0.5
2014-Nov-23 05:33N 46°26' W 001°56'1 0.9
2014-Nov-23 04:33N 46°25' W 001°57'2 1.7
2014-Nov-23 03:33N 46°27' W 001°58'2 1.6
2014-Nov-23 02:33N 46°26' W 001°55'1 1.3
2014-Nov-23 01:33N 46°28' W 001°55'6 6.0
2014-Nov-23 00:33N 46°30' W 001°47'0 0.0
2014-Nov-22 23:33N 46°30' W 001°47'0 0.0
2014-Nov-22 22:33N 46°30' W 001°47'0 0.0
2014-Nov-22 21:33N 46°30' W 001°47'0 0.0
2014-Nov-22 20:33N 46°30' W 001°47'0 0.0
2014-Nov-22 19:33N 46°30' W 001°47'0 0.0
2014-Nov-22 18:33N 46°30' W 001°47'0 0.0
2014-Nov-22 17:33N 46°30' W 001°47'0 0.0
2014-Nov-22 16:33N 46°30' W 001°47'0 0.0
2014-Nov-22 15:33N 46°30' W 001°47'0 0.0
2014-Nov-22 14:33N 46°30' W 001°47'0 0.0
2014-Nov-22 13:33N 46°30' W 001°47'0 0.0
2014-Nov-22 12:33N 46°30' W 001°47'3 3.1
2014-Nov-22 11:33N 46°27' W 001°50'5 4.8
2014-Nov-22 10:33N 46°26' W 001°57'1 1.1
2014-Nov-22 09:33N 46°26' W 001°55'6 5.6
2014-Nov-22 08:33N 46°28' W 002°03'2 1.7
2014-Nov-22 07:33N 46°30' W 002°04'1 1.2
2014-Nov-22 06:29N 46°28' W 002°04'2 1.9
2014-Nov-22 05:33N 46°30' W 002°05'2 1.5
2014-Nov-22 04:33N 46°29' W 002°03'1 1.1
2014-Nov-22 03:33N 46°30' W 002°04'2 2.2
2014-Nov-22 02:33N 46°28' W 002°03'2 1.8
2014-Nov-22 01:34N 46°30' W 002°03'1 0.7
2014-Nov-22 00:33N 46°31' W 002°04'0 0.0
2014-Nov-21 23:33N 46°31' W 002°04'0 0.0
2014-Nov-21 22:33N 46°31' W 002°04'0 0.0
2014-Nov-21 21:33N 46°31' W 002°04'0 0.0
2014-Nov-21 20:33N 46°31' W 002°04'0 0.0
2014-Nov-21 19:33N 46°31' W 002°04'0 0.0
2014-Nov-21 18:33N 46°31' W 002°04'0 0.0
2014-Nov-21 17:33N 46°31' W 002°04'0 0.0
2014-Nov-21 16:33N 46°31' W 002°04'0 0.0
2014-Nov-21 15:32N 46°31' W 002°04'0 0.0
2014-Nov-21 14:33N 46°31' W 002°04'2 2.0
2014-Nov-21 13:33N 46°29' W 002°03'2 1.8
2014-Nov-21 12:33N 46°30' W 002°04'9 8.6
2014-Nov-21 11:34N 46°23' W 001°58'8 8.0
2014-Nov-21 10:33N 46°16' W 001°53'1 0.9
2014-Nov-21 09:32N 46°16' W 001°52'1 1.4
2014-Nov-21 08:33N 46°16' W 001°54'1 0.9
2014-Nov-21 07:33N 46°15' W 001°53'2 1.9
2014-Nov-21 06:33N 46°17' W 001°55'2 1.8
2014-Nov-21 05:34N 46°15' W 001°53'1 1.1
2014-Nov-21 04:32N 46°16' W 001°55'1 0.6
2014-Nov-21 03:33N 46°16' W 001°54'0 0.3
2014-Nov-21 02:33N 46°16' W 001°53'7 7.2
2014-Nov-21 01:33N 46°23' W 001°50'7 7.2
2014-Nov-21 00:33N 46°30' W 001°47'0 0.0
2014-Nov-20 23:33N 46°30' W 001°47'0 0.0
2014-Nov-20 22:33N 46°30' W 001°47'0 0.0
2014-Nov-20 21:33N 46°30' W 001°47'0 0.0
2014-Nov-20 20:33N 46°30' W 001°47'0 0.0
2014-Nov-20 19:33N 46°30' W 001°47'0 0.0
2014-Nov-20 18:33N 46°30' W 001°47'0 0.0
2014-Nov-20 17:33N 46°30' W 001°47'0 0.0
2014-Nov-20 16:33N 46°30' W 001°47'0 0.0
2014-Nov-20 15:33N 46°30' W 001°47'0 0.0
2014-Nov-20 14:33N 46°30' W 001°47'0 0.0
2014-Nov-20 13:33N 46°30' W 001°47'0 0.0
2014-Nov-20 12:33N 46°30' W 001°47'6 5.6
2014-Nov-20 11:33N 46°25' W 001°49'8 7.8
2014-Nov-20 10:31N 46°17' W 001°54'1 1.3
2014-Nov-20 09:33N 46°16' W 001°53'1 0.6
2014-Nov-20 08:33N 46°16' W 001°54'0 0.2
2014-Nov-20 07:33N 46°16' W 001°54'1 1.2
2014-Nov-20 06:33N 46°15' W 001°53'2 1.9
2014-Nov-20 05:34N 46°17' W 001°55'1 1.1
2014-Nov-20 04:33N 46°16' W 001°54'1 0.7
2014-Nov-20 03:33N 46°16' W 001°53'1 1.1
2014-Nov-20 02:33N 46°17' W 001°54'1 0.9
2014-Nov-20 01:32N 46°16' W 001°53'2 1.7
2014-Nov-20 00:34N 46°17' W 001°54'0 0.1
2014-Nov-19 23:33N 46°17' W 001°54'0 0.0
2014-Nov-19 22:33N 46°17' W 001°54'0 0.0
2014-Nov-19 21:33N 46°17' W 001°54'0 0.0
2014-Nov-19 20:33N 46°17' W 001°54'0 0.0
2014-Nov-19 19:32N 46°17' W 001°54'0 0.0
2014-Nov-19 15:33N 46°17' W 001°54'0 0.1
2014-Nov-19 14:33N 46°17' W 001°54'2 1.8
2014-Nov-19 13:34N 46°16' W 001°53'1 1.0
2014-Nov-19 12:33N 46°16' W 001°54'6 0.4
2014-Nov-18 19:28N 46°19' W 002°02'8 8.5
2014-Nov-18 18:33N 46°24' W 001°53'7 7.0
2014-Nov-18 17:33N 46°30' W 001°47'0 0.1
2014-Nov-18 16:33N 46°30' W 001°47'0 0.0
2014-Nov-18 15:33N 46°30' W 001°47'0 0.0
2014-Nov-18 14:33N 46°30' W 001°47'0 0.0
2014-Nov-18 13:33N 46°30' W 001°47'0 0.0
2014-Nov-18 12:33N 46°30' W 001°47'0 0.0
2014-Nov-18 11:34N 46°30' W 001°47'0 0.0
2014-Nov-18 10:33N 46°30' W 001°47'0 0.0
2014-Nov-18 09:33N 46°30' W 001°47'0 0.0
2014-Nov-18 08:33N 46°30' W 001°47'1 1.4
2014-Nov-18 07:33N 46°28' W 001°47'10 9.4
2014-Nov-18 06:33N 46°22' W 001°57'  
Track history (hours):
 
Tides and Currents Weather Stations Pressure Air Temp Water Temp Dewpoint Dewpoint Depression Visibility Wind Speed Wind Dir Waves Ship Positions

F/V Fleur Des Vagues

Last reported at 2014-Nov-27 23:33 UTC. Time now 2014-Nov-28 00:19 UTC.
Position N 46°17' W 002°09'.

Length 16 m.

Type: Fishing. MMSI: 227893000.

Date/timePositionNaut miles runAvg speedWind from/ knotsBaromVisibWave heightAir tempDewpointWater temp
2014-Nov-27 23:33N 46°17' W 002°09'8 8.3
2014-Nov-27 22:33N 46°22' W 001°59'8 8.3
2014-Nov-27 21:33N 46°27' W 001°50'3 3.3
2014-Nov-27 20:33N 46°30' W 001°47'0 0.0
2014-Nov-27 19:33N 46°30' W 001°47'0 0.0
2014-Nov-27 18:33N 46°30' W 001°47'0 0.0
2014-Nov-27 17:33N 46°30' W 001°47'0 0.0
2014-Nov-27 16:33N 46°30' W 001°47'0 0.0
2014-Nov-27 15:33N 46°30' W 001°47'0 0.0
2014-Nov-27 14:33N 46°30' W 001°47'0 0.0
2014-Nov-27 13:33N 46°30' W 001°47'7 6.7
2014-Nov-27 12:33N 46°25' W 001°54'8 8.3
2014-Nov-27 11:33N 46°20' W 002°04'0 0.0
2014-Nov-26 02:21N 46°20' W 002°04'7 8.3
2014-Nov-26 01:33N 46°24' W 001°56'8 8.2
2014-Nov-26 00:33N 46°29' W 001°47'1 0.8
2014-Nov-25 23:33N 46°30' W 001°47'0 0.0
2014-Nov-25 22:33N 46°30' W 001°47'0 0.0
2014-Nov-25 21:33N 46°30' W 001°47'0 0.0
2014-Nov-25 20:33N 46°30' W 001°47'0 0.0
2014-Nov-25 19:33N 46°30' W 001°47'0 0.0
2014-Nov-25 18:33N 46°30' W 001°47'0 0.0
2014-Nov-25 17:33N 46°30' W 001°47'0 0.0
2014-Nov-25 16:33N 46°30' W 001°47'0 0.0
2014-Nov-25 15:33N 46°30' W 001°47'0 0.0
2014-Nov-25 14:33N 46°30' W 001°47'0 0.0
2014-Nov-25 13:33N 46°30' W 001°47'2 2.5
2014-Nov-25 12:33N 46°28' W 001°49'22 0.7
2014-Nov-24 02:06N 46°23' W 002°21'0 0.0
2014-Nov-23 11:23N 46°23' W 002°21'8 6.7
2014-Nov-23 10:15N 46°23' W 002°10'6 8.6
2014-Nov-23 09:33N 46°25' W 002°01'4 3.9
2014-Nov-23 08:34N 46°25' W 001°56'2 1.8
2014-Nov-23 07:33N 46°27' W 001°57'1 1.4
2014-Nov-23 06:33N 46°26' W 001°56'1 0.5
2014-Nov-23 05:33N 46°26' W 001°56'1 0.9
2014-Nov-23 04:33N 46°25' W 001°57'2 1.7
2014-Nov-23 03:33N 46°27' W 001°58'2 1.6
2014-Nov-23 02:33N 46°26' W 001°55'1 1.3
2014-Nov-23 01:33N 46°28' W 001°55'6 6.0
2014-Nov-23 00:33N 46°30' W 001°47'0 0.0
2014-Nov-22 23:33N 46°30' W 001°47'0 0.0
2014-Nov-22 22:33N 46°30' W 001°47'0 0.0
2014-Nov-22 21:33N 46°30' W 001°47'0 0.0
2014-Nov-22 20:33N 46°30' W 001°47'0 0.0
2014-Nov-22 19:33N 46°30' W 001°47'0 0.0
2014-Nov-22 18:33N 46°30' W 001°47'0 0.0
2014-Nov-22 17:33N 46°30' W 001°47'0 0.0
2014-Nov-22 16:33N 46°30' W 001°47'0 0.0
2014-Nov-22 15:33N 46°30' W 001°47'0 0.0
2014-Nov-22 14:33N 46°30' W 001°47'0 0.0
2014-Nov-22 13:33N 46°30' W 001°47'0 0.0
2014-Nov-22 12:33N 46°30' W 001°47'3 3.1
2014-Nov-22 11:33N 46°27' W 001°50'5 4.8
2014-Nov-22 10:33N 46°26' W 001°57'1 1.1
2014-Nov-22 09:33N 46°26' W 001°55'6 5.6
2014-Nov-22 08:33N 46°28' W 002°03'2 1.7
2014-Nov-22 07:33N 46°30' W 002°04'1 1.2
2014-Nov-22 06:29N 46°28' W 002°04'2 1.9
2014-Nov-22 05:33N 46°30' W 002°05'2 1.5
2014-Nov-22 04:33N 46°29' W 002°03'1 1.1
2014-Nov-22 03:33N 46°30' W 002°04'2 2.2
2014-Nov-22 02:33N 46°28' W 002°03'2 1.8
2014-Nov-22 01:34N 46°30' W 002°03'1 0.7
2014-Nov-22 00:33N 46°31' W 002°04'0 0.0
2014-Nov-21 23:33N 46°31' W 002°04'0 0.0
2014-Nov-21 22:33N 46°31' W 002°04'0 0.0
2014-Nov-21 21:33N 46°31' W 002°04'0 0.0
2014-Nov-21 20:33N 46°31' W 002°04'0 0.0
2014-Nov-21 19:33N 46°31' W 002°04'0 0.0
2014-Nov-21 18:33N 46°31' W 002°04'0 0.0
2014-Nov-21 17:33N 46°31' W 002°04'0 0.0
2014-Nov-21 16:33N 46°31' W 002°04'0 0.0
2014-Nov-21 15:32N 46°31' W 002°04'0 0.0
2014-Nov-21 14:33N 46°31' W 002°04'2 2.0
2014-Nov-21 13:33N 46°29' W 002°03'2 1.8
2014-Nov-21 12:33N 46°30' W 002°04'9 8.6
2014-Nov-21 11:34N 46°23' W 001°58'8 8.0
2014-Nov-21 10:33N 46°16' W 001°53'1 0.9
2014-Nov-21 09:32N 46°16' W 001°52'1 1.4
2014-Nov-21 08:33N 46°16' W 001°54'1 0.9
2014-Nov-21 07:33N 46°15' W 001°53'2 1.9
2014-Nov-21 06:33N 46°17' W 001°55'2 1.8
2014-Nov-21 05:34N 46°15' W 001°53'1 1.1
2014-Nov-21 04:32N 46°16' W 001°55'1 0.6
2014-Nov-21 03:33N 46°16' W 001°54'0 0.3
2014-Nov-21 02:33N 46°16' W 001°53'7 7.2
2014-Nov-21 01:33N 46°23' W 001°50'7 7.2
2014-Nov-21 00:33N 46°30' W 001°47'0 0.0
2014-Nov-20 23:33N 46°30' W 001°47'0 0.0
2014-Nov-20 22:33N 46°30' W 001°47'0 0.0
2014-Nov-20 21:33N 46°30' W 001°47'0 0.0
2014-Nov-20 20:33N 46°30' W 001°47'0 0.0
2014-Nov-20 19:33N 46°30' W 001°47'0 0.0
2014-Nov-20 18:33N 46°30' W 001°47'0 0.0
2014-Nov-20 17:33N 46°30' W 001°47'0 0.0
2014-Nov-20 16:33N 46°30' W 001°47'0 0.0
2014-Nov-20 15:33N 46°30' W 001°47'0 0.0
2014-Nov-20 14:33N 46°30' W 001°47'0 0.0
2014-Nov-20 13:33N 46°30' W 001°47'0 0.0
2014-Nov-20 12:33N 46°30' W 001°47'6 5.6
2014-Nov-20 11:33N 46°25' W 001°49'8 7.8
2014-Nov-20 10:31N 46°17' W 001°54'1 1.3
2014-Nov-20 09:33N 46°16' W 001°53'1 0.6
2014-Nov-20 08:33N 46°16' W 001°54'0 0.2
2014-Nov-20 07:33N 46°16' W 001°54'1 1.2
2014-Nov-20 06:33N 46°15' W 001°53'2 1.9
2014-Nov-20 05:34N 46°17' W 001°55'1 1.1
2014-Nov-20 04:33N 46°16' W 001°54'1 0.7
2014-Nov-20 03:33N 46°16' W 001°53'1 1.1
2014-Nov-20 02:33N 46°17' W 001°54'1 0.9
2014-Nov-20 01:32N 46°16' W 001°53'2 1.7
2014-Nov-20 00:34N 46°17' W 001°54'0 0.1
2014-Nov-19 23:33N 46°17' W 001°54'0 0.0
2014-Nov-19 22:33N 46°17' W 001°54'0 0.0
2014-Nov-19 21:33N 46°17' W 001°54'0 0.0
2014-Nov-19 20:33N 46°17' W 001°54'0 0.0
2014-Nov-19 19:32N 46°17' W 001°54'0 0.0
2014-Nov-19 15:33N 46°17' W 001°54'0 0.1
2014-Nov-19 14:33N 46°17' W 001°54'2 1.8
2014-Nov-19 13:34N 46°16' W 001°53'1 1.0
2014-Nov-19 12:33N 46°16' W 001°54'6 0.4
2014-Nov-18 19:28N 46°19' W 002°02'8 8.5
2014-Nov-18 18:33N 46°24' W 001°53'7 7.0
2014-Nov-18 17:33N 46°30' W 001°47'0 0.1
2014-Nov-18 16:33N 46°30' W 001°47'0 0.0
2014-Nov-18 15:33N 46°30' W 001°47'0 0.0
2014-Nov-18 14:33N 46°30' W 001°47'0 0.0
2014-Nov-18 13:33N 46°30' W 001°47'0 0.0
2014-Nov-18 12:33N 46°30' W 001°47'0 0.0
2014-Nov-18 11:34N 46°30' W 001°47'0 0.0
2014-Nov-18 10:33N 46°30' W 001°47'0 0.0
2014-Nov-18 09:33N 46°30' W 001°47'0 0.0
2014-Nov-18 08:33N 46°30' W 001°47'1 1.4
2014-Nov-18 07:33N 46°28' W 001°47'10 9.4
2014-Nov-18 06:33N 46°22' W 001°57'  

Dump ship's entire track history